createdAt,value
2019-02-05T00:00:51.681Z,2.60
2019-02-05T00:03:22.520Z,2.70
2019-02-05T00:05:52.148Z,2.70
2019-02-05T00:08:21.675Z,2.80
2019-02-05T00:10:50.631Z,2.70
2019-02-05T00:13:19.558Z,2.70
2019-02-05T00:15:48.540Z,2.80
2019-02-05T00:18:17.352Z,2.80
2019-02-05T00:20:47.082Z,2.80
2019-02-05T00:23:16.296Z,2.90
2019-02-05T00:25:45.301Z,2.80
2019-02-05T00:28:14.290Z,2.80
2019-02-05T00:30:43.557Z,2.80
2019-02-05T00:33:12.572Z,2.70
2019-02-05T00:35:41.573Z,2.70
2019-02-05T00:38:10.516Z,2.70
2019-02-05T00:40:39.502Z,2.70
2019-02-05T00:43:08.579Z,2.60
2019-02-05T00:45:37.500Z,2.60
2019-02-05T00:48:06.801Z,2.60
2019-02-05T00:50:35.768Z,2.50
2019-02-05T00:53:05.456Z,2.50
2019-02-05T00:55:34.348Z,2.50
2019-02-05T00:58:03.676Z,2.50
2019-02-05T01:00:34.020Z,2.40
2019-02-05T01:03:03.016Z,2.40
2019-02-05T01:05:31.921Z,2.40
2019-02-05T01:08:01.216Z,2.40
2019-02-05T01:10:30.196Z,2.50
2019-02-05T01:12:59.696Z,2.50
2019-02-05T01:15:28.609Z,2.60
2019-02-05T01:17:57.816Z,2.60
2019-02-05T01:20:26.777Z,2.70
2019-02-05T01:22:55.676Z,2.70
2019-02-05T01:25:24.692Z,2.70
2019-02-05T01:27:53.664Z,2.70
2019-02-05T01:30:26.840Z,2.80
2019-02-05T01:32:56.012Z,2.80
2019-02-05T01:35:25.012Z,2.80
2019-02-05T01:37:54.008Z,2.70
2019-02-05T01:40:24.690Z,2.70
2019-02-05T01:42:53.879Z,2.60
2019-02-05T01:45:23.792Z,2.70
2019-02-05T01:47:53.032Z,2.70
2019-02-05T01:50:24.087Z,2.70
2019-02-05T01:52:52.988Z,2.80
2019-02-05T01:55:22.293Z,2.70
2019-02-05T01:57:51.489Z,2.60
2019-02-05T02:00:22.759Z,2.60
2019-02-05T02:02:51.940Z,2.60
2019-02-05T02:05:20.903Z,2.60
2019-02-05T02:07:49.888Z,2.60
2019-02-05T02:10:21.485Z,2.60
2019-02-05T02:12:50.636Z,2.50
2019-02-05T02:15:19.968Z,2.50
2019-02-05T02:17:49.044Z,2.40
2019-02-05T02:20:18.892Z,2.40
2019-02-05T02:23:07.013Z,2.40
2019-02-05T02:25:36.002Z,2.40
2019-02-05T02:28:05.512Z,2.40
2019-02-05T02:30:37.158Z,2.30
2019-02-05T02:33:06.556Z,2.20
2019-02-05T02:35:36.011Z,2.00
2019-02-05T02:38:05.803Z,1.90
2019-02-05T02:40:34.789Z,1.90
2019-02-05T02:43:03.696Z,1.90
2019-02-05T02:45:32.661Z,1.90
2019-02-05T02:48:01.666Z,1.90
2019-02-05T02:50:31.130Z,2.00
2019-02-05T02:53:19.074Z,2.00
2019-02-05T02:55:47.882Z,1.90
2019-02-05T02:58:16.881Z,1.90
2019-02-05T03:00:45.767Z,1.90
2019-02-05T03:03:14.815Z,1.90
2019-02-05T03:05:44.365Z,1.90
2019-02-05T03:08:13.332Z,1.90
2019-02-05T03:10:42.268Z,1.90
2019-02-05T03:13:11.378Z,1.80
2019-02-05T03:15:40.398Z,1.70
2019-02-05T03:18:09.192Z,1.60
2019-02-05T03:20:38.390Z,1.70
2019-02-05T03:23:07.277Z,1.60
2019-02-05T03:25:36.292Z,1.60
2019-02-05T03:28:05.248Z,1.60
2019-02-05T03:30:34.458Z,1.70
2019-02-05T03:33:03.370Z,1.70
2019-02-05T03:35:32.353Z,1.70
2019-02-05T03:38:01.716Z,1.80
2019-02-05T03:41:00.353Z,1.80
2019-02-05T03:43:29.257Z,1.90
2019-02-05T03:45:59.852Z,1.90
2019-02-05T03:48:30.116Z,1.90
2019-02-05T03:51:36.394Z,1.90
2019-02-05T03:54:32.357Z,1.70
2019-02-05T03:57:30.705Z,1.70
2019-02-05T04:00:15.708Z,1.50
2019-02-05T04:02:54.062Z,1.40
2019-02-05T04:06:19.320Z,1.50
2019-02-05T04:09:25.656Z,1.50
2019-02-05T04:12:17.941Z,1.50
2019-02-05T04:15:08.223Z,1.50
2019-02-05T04:18:22.101Z,1.50
2019-02-05T04:21:10.863Z,1.60
2019-02-05T04:24:06.976Z,1.60
2019-02-05T04:27:12.041Z,1.60
2019-02-05T04:30:19.314Z,1.60
2019-02-05T04:33:38.509Z,1.60
2019-02-05T04:36:36.536Z,1.60
2019-02-05T04:39:41.648Z,1.50
2019-02-05T04:42:36.878Z,1.50
2019-02-05T04:45:43.213Z,1.40
2019-02-05T04:48:56.732Z,1.40
2019-02-05T04:52:31.041Z,1.40
2019-02-05T04:55:12.925Z,1.30
2019-02-05T04:58:10.484Z,1.30
2019-02-05T05:00:57.707Z,1.20
2019-02-05T05:04:16.717Z,1.20
2019-02-05T05:07:39.952Z,1.20
2019-02-05T05:10:09.301Z,1.10
2019-02-05T05:12:38.292Z,1.00
2019-02-05T05:15:09.625Z,1.00
2019-02-05T05:17:38.605Z,1.10
2019-02-05T05:20:10.067Z,1.10
2019-02-05T05:22:39.492Z,1.10
2019-02-05T05:25:10.353Z,1.20
2019-02-05T05:27:39.652Z,1.10
2019-02-05T05:30:15.677Z,1.20
2019-02-05T05:32:44.558Z,1.20
2019-02-05T05:35:14.596Z,1.10
2019-02-05T05:37:43.558Z,1.10
2019-02-05T05:40:13.224Z,1.10
2019-02-05T05:42:42.221Z,0.90
2019-02-05T05:45:13.626Z,0.80
2019-02-05T05:47:42.558Z,0.80
2019-02-05T05:50:14.165Z,0.70
2019-02-05T05:52:43.200Z,0.70
2019-02-05T05:55:13.032Z,0.70
2019-02-05T05:57:42.341Z,0.70
2019-02-05T06:00:14.981Z,0.80
2019-02-05T06:02:44.016Z,0.90
2019-02-05T06:05:14.937Z,0.90
2019-02-05T06:07:44.136Z,1.00
2019-02-05T06:10:13.941Z,1.00
2019-02-05T06:12:42.966Z,0.90
2019-02-05T06:15:12.276Z,0.80
2019-02-05T06:17:41.128Z,0.70
2019-02-05T06:20:12.764Z,0.70
2019-02-05T06:22:41.622Z,0.60
2019-02-05T06:25:11.193Z,0.60
2019-02-05T06:27:40.524Z,0.60
2019-02-05T06:30:10.965Z,0.60
2019-02-05T06:32:39.836Z,0.70
2019-02-05T06:35:08.768Z,0.80
2019-02-05T06:37:37.731Z,0.80
2019-02-05T06:40:07.796Z,0.80
2019-02-05T06:42:36.748Z,0.80
2019-02-05T06:45:07.368Z,0.80
2019-02-05T06:47:36.280Z,0.80
2019-02-05T06:50:06.496Z,0.80
2019-02-05T06:52:35.388Z,0.80
2019-02-05T06:55:05.028Z,0.70
2019-02-05T06:57:34.180Z,0.60
2019-02-05T07:00:03.036Z,0.50
2019-02-05T07:02:31.965Z,0.50
2019-02-05T07:05:00.865Z,0.40
2019-02-05T07:07:29.708Z,0.30
2019-02-05T07:09:58.792Z,0.30
2019-02-05T07:12:28.357Z,0.30
2019-02-05T07:14:57.266Z,0.30
2019-02-05T07:17:26.168Z,0.30
2019-02-05T07:19:54.968Z,0.30
2019-02-05T07:22:24.260Z,0.30
2019-02-05T07:24:53.155Z,0.30
2019-02-05T07:27:22.157Z,0.30
2019-02-05T07:29:51.343Z,0.30
2019-02-05T07:32:20.248Z,0.30
2019-02-05T07:34:49.048Z,0.40
2019-02-05T07:37:18.148Z,0.50
2019-02-05T07:39:47.328Z,0.40
2019-02-05T07:42:16.263Z,0.40
2019-02-05T07:44:45.416Z,0.50
2019-02-05T07:47:14.413Z,0.50
2019-02-05T07:49:43.396Z,0.50
2019-02-05T07:52:12.909Z,0.50
2019-02-05T07:54:41.716Z,0.60
2019-02-05T07:57:10.744Z,0.60
2019-02-05T07:59:39.556Z,0.60
2019-02-05T08:02:08.434Z,0.60
2019-02-05T08:04:37.436Z,0.70
2019-02-05T08:07:07.636Z,0.70
2019-02-05T08:09:36.740Z,0.70
2019-02-05T08:12:06.016Z,0.80
2019-02-05T08:14:34.898Z,0.70
2019-02-05T08:17:03.981Z,0.80
2019-02-05T08:19:33.054Z,0.90
2019-02-05T08:22:02.151Z,0.90
2019-02-05T08:24:31.725Z,1.00
2019-02-05T08:27:00.537Z,1.00
2019-02-05T08:29:29.764Z,1.10
2019-02-05T08:31:59.126Z,1.10
2019-02-05T08:34:28.346Z,1.20
2019-02-05T08:36:57.332Z,1.20
2019-02-05T08:39:26.622Z,1.30
2019-02-05T08:41:55.904Z,1.30
2019-02-05T08:44:24.788Z,1.40
2019-02-05T08:46:53.804Z,1.40
2019-02-05T08:49:22.824Z,1.50
2019-02-05T08:51:51.997Z,1.50
2019-02-05T08:54:21.164Z,1.50
2019-02-05T08:56:50.120Z,1.60
2019-02-05T08:59:19.373Z,1.60
2019-02-05T09:01:48.404Z,1.70
2019-02-05T09:04:17.316Z,1.70
2019-02-05T09:06:46.236Z,1.70
2019-02-05T09:09:15.356Z,1.80
2019-02-05T09:11:44.377Z,1.80
2019-02-05T09:14:13.308Z,1.80
2019-02-05T09:16:42.496Z,1.90
2019-02-05T09:19:11.462Z,2.00
2019-02-05T09:21:40.412Z,2.00
2019-02-05T09:24:09.598Z,2.10
2019-02-05T09:26:38.565Z,2.10
2019-02-05T09:29:07.497Z,2.20
2019-02-05T09:31:36.400Z,2.30
2019-02-05T09:34:05.768Z,2.40
2019-02-05T09:36:34.901Z,2.50
2019-02-05T09:39:06.613Z,2.50
2019-02-05T09:41:36.026Z,2.70
2019-02-05T09:44:05.807Z,2.80
2019-02-05T09:46:34.834Z,3.00
2019-02-05T09:49:04.353Z,3.20
2019-02-05T09:51:33.344Z,3.30
2019-02-05T09:54:02.522Z,3.40
2019-02-05T09:56:31.344Z,3.40
2019-02-05T09:59:00.368Z,3.50
2019-02-05T10:01:29.703Z,3.70
2019-02-05T10:03:58.588Z,3.80
2019-02-05T10:06:28.073Z,3.90
2019-02-05T10:08:57.199Z,3.90
2019-02-05T10:11:26.688Z,3.90
2019-02-05T10:13:55.624Z,4.00
2019-02-05T10:16:24.586Z,4.00
2019-02-05T10:18:53.592Z,4.00
2019-02-05T10:21:22.796Z,4.10
2019-02-05T10:23:52.172Z,4.20
2019-02-05T10:26:21.116Z,4.20
2019-02-05T10:28:50.043Z,4.20
2019-02-05T10:31:19.168Z,4.20
2019-02-05T10:33:54.840Z,4.30
2019-02-05T10:36:18.774Z,4.40
2019-02-05T10:38:48.336Z,4.50
2019-02-05T10:41:17.253Z,4.60
2019-02-05T10:43:46.220Z,4.70
2019-02-05T10:46:15.192Z,4.70
2019-02-05T10:48:44.082Z,4.80
2019-02-05T10:51:12.980Z,4.90
2019-02-05T10:53:41.865Z,4.90
2019-02-05T10:56:11.350Z,5.00
2019-02-05T10:58:40.438Z,5.10
2019-02-05T11:01:09.415Z,5.20
2019-02-05T11:03:38.484Z,5.30
2019-02-05T11:06:07.406Z,5.40
2019-02-05T11:08:36.473Z,5.50
2019-02-05T11:11:05.515Z,5.60
2019-02-05T11:13:35.209Z,5.70
2019-02-05T11:16:04.605Z,5.90
2019-02-05T11:18:33.502Z,6.00
2019-02-05T11:21:04.363Z,6.10
2019-02-05T11:23:33.075Z,6.30
2019-02-05T11:26:01.925Z,6.40
2019-02-05T11:28:31.031Z,6.40
2019-02-05T11:31:00.016Z,6.30
2019-02-05T11:33:29.021Z,6.30
2019-02-05T11:35:57.948Z,6.40
2019-02-05T11:38:26.745Z,6.50
2019-02-05T11:40:55.809Z,6.50
2019-02-05T11:43:24.680Z,6.60
2019-02-05T11:45:54.267Z,6.70
2019-02-05T11:48:23.656Z,6.80
2019-02-05T11:50:52.660Z,6.90
2019-02-05T11:53:21.996Z,7.10
2019-02-05T11:55:50.957Z,7.20
2019-02-05T11:58:19.977Z,7.20
2019-02-05T12:00:57.134Z,7.30
2019-02-05T12:03:26.484Z,7.40
2019-02-05T12:05:56.352Z,7.40
2019-02-05T12:08:25.237Z,7.50
2019-02-05T12:10:54.286Z,7.70
2019-02-05T12:13:23.252Z,7.90
2019-02-05T12:15:52.089Z,7.90
2019-02-05T12:18:22.328Z,8.00
2019-02-05T12:20:51.228Z,8.10
2019-02-05T12:23:20.232Z,8.20
2019-02-05T12:25:49.149Z,8.20
2019-02-05T12:28:18.204Z,8.30
2019-02-05T12:30:48.116Z,8.40
2019-02-05T12:33:16.898Z,8.60
2019-02-05T12:35:46.364Z,8.90
2019-02-05T12:38:15.300Z,9.20
2019-02-05T12:40:44.548Z,9.30
2019-02-05T12:43:13.564Z,9.30
2019-02-05T12:45:42.845Z,9.50
2019-02-05T12:48:11.798Z,9.90
2019-02-05T12:50:40.869Z,10.10
2019-02-05T12:53:10.132Z,10.00
2019-02-05T12:55:39.401Z,9.90
2019-02-05T12:58:08.749Z,10.00
2019-02-05T13:00:43.533Z,10.10
2019-02-05T13:03:13.223Z,10.30
2019-02-05T13:05:43.628Z,10.40
2019-02-05T13:08:12.757Z,10.70
2019-02-05T13:10:44.088Z,10.80
2019-02-05T13:13:13.392Z,10.80
2019-02-05T13:15:42.388Z,10.90
2019-02-05T13:18:11.404Z,10.70
2019-02-05T13:20:40.789Z,10.60
2019-02-05T13:23:10.310Z,10.50
2019-02-05T13:25:40.500Z,10.60
2019-02-05T13:28:11.920Z,10.80
2019-02-05T13:30:41.180Z,10.80
2019-02-05T13:33:11.465Z,10.80
2019-02-05T13:35:40.831Z,10.70
2019-02-05T13:38:10.000Z,10.60
2019-02-05T13:40:39.108Z,10.70
2019-02-05T13:43:08.398Z,10.50
2019-02-05T13:45:39.037Z,10.40
2019-02-05T13:48:08.605Z,10.50
2019-02-05T13:50:37.787Z,10.80
2019-02-05T13:53:07.207Z,11.20
2019-02-05T13:55:38.841Z,11.60
2019-02-05T13:58:08.118Z,11.60
2019-02-05T14:00:48.048Z,11.90
2019-02-05T14:03:17.153Z,12.30
2019-02-05T14:05:46.760Z,12.60
2019-02-05T14:08:15.763Z,12.70
2019-02-05T14:10:45.086Z,13.10
2019-02-05T14:13:14.072Z,12.60
2019-02-05T14:15:44.016Z,12.10
2019-02-05T14:18:13.268Z,11.80
2019-02-05T14:20:42.372Z,11.60
2019-02-05T14:23:11.522Z,11.50
2019-02-05T14:25:40.588Z,11.60
2019-02-05T14:28:09.573Z,11.10
2019-02-05T14:30:44.220Z,10.90
2019-02-05T14:33:13.415Z,10.80
2019-02-05T14:35:42.541Z,10.70
2019-02-05T14:38:11.880Z,10.50
2019-02-05T14:41:01.290Z,10.50
2019-02-05T14:43:30.420Z,10.50
2019-02-05T14:45:59.324Z,10.20
2019-02-05T14:48:28.283Z,10.30
2019-02-05T14:50:57.300Z,10.30
2019-02-05T14:53:26.300Z,10.30
2019-02-05T14:55:55.193Z,10.20
2019-02-05T14:58:24.336Z,10.00
2019-02-05T15:00:53.301Z,9.80
2019-02-05T15:03:22.268Z,9.70
2019-02-05T15:05:51.052Z,9.60
2019-02-05T15:08:20.321Z,9.50
2019-02-05T15:10:49.391Z,9.40
2019-02-05T15:13:18.602Z,9.40
2019-02-05T15:15:47.845Z,9.30
2019-02-05T15:18:18.973Z,9.30
2019-02-05T15:20:49.289Z,9.30
2019-02-05T15:23:18.441Z,9.40
2019-02-05T15:25:47.412Z,9.40
2019-02-05T15:28:16.675Z,9.40
2019-02-05T15:30:46.067Z,9.40
2019-02-05T15:33:41.612Z,9.40
2019-02-05T15:36:32.026Z,9.40
2019-02-05T15:39:01.052Z,9.40
2019-02-05T15:41:29.928Z,9.40
2019-02-05T15:44:00.765Z,9.40
2019-02-05T15:46:29.524Z,9.50
2019-02-05T15:48:58.496Z,9.50
2019-02-05T15:51:27.698Z,9.50
2019-02-05T15:53:56.573Z,9.40
2019-02-05T15:56:25.561Z,9.20
2019-02-05T15:58:54.451Z,9.10
2019-02-05T16:01:23.443Z,9.10
2019-02-05T16:03:52.266Z,9.20
2019-02-05T16:06:21.409Z,9.20
2019-02-05T16:08:50.648Z,9.10
2019-02-05T16:11:19.452Z,9.10
2019-02-05T16:13:48.490Z,8.90
2019-02-05T16:16:17.488Z,8.80
2019-02-05T16:18:46.467Z,8.80
2019-02-05T16:21:15.368Z,8.60
2019-02-05T16:23:44.284Z,8.50
2019-02-05T16:26:13.128Z,8.50
2019-02-05T16:28:42.044Z,8.50
2019-02-05T16:31:10.940Z,8.50
2019-02-05T16:33:40.292Z,8.50
2019-02-05T16:36:09.650Z,8.50
2019-02-05T16:38:38.649Z,8.50
2019-02-05T16:41:07.626Z,8.40
2019-02-05T16:43:36.876Z,8.30
2019-02-05T16:46:06.216Z,8.20
2019-02-05T16:48:35.804Z,8.30
2019-02-05T16:51:05.429Z,8.20
2019-02-05T16:53:34.440Z,8.30
2019-02-05T16:56:03.716Z,8.30
2019-02-05T16:58:32.712Z,8.30
2019-02-05T17:01:01.722Z,8.20
2019-02-05T17:03:30.524Z,8.10
2019-02-05T17:05:59.452Z,8.00
2019-02-05T17:08:28.369Z,7.90
2019-02-05T17:10:57.389Z,7.90
2019-02-05T17:13:26.316Z,7.80
2019-02-05T17:15:55.172Z,7.80
2019-02-05T17:18:24.207Z,7.80
2019-02-05T17:20:53.255Z,7.70
2019-02-05T17:23:22.357Z,7.70
2019-02-05T17:25:51.256Z,7.60
2019-02-05T17:28:20.218Z,7.50
2019-02-05T17:30:49.096Z,7.50
2019-02-05T17:33:18.004Z,7.40
2019-02-05T17:35:48.853Z,7.40
2019-02-05T17:38:17.847Z,7.40
2019-02-05T17:40:47.148Z,7.40
2019-02-05T17:43:16.144Z,7.40
2019-02-05T17:45:45.304Z,7.40
2019-02-05T17:48:17.200Z,7.40
2019-02-05T17:50:46.270Z,7.50
2019-02-05T17:53:15.282Z,7.60
2019-02-05T17:55:44.408Z,7.50
2019-02-05T17:58:13.585Z,7.50
2019-02-05T18:01:10.708Z,7.50
2019-02-05T18:03:39.912Z,7.60
2019-02-05T18:06:09.213Z,7.60
2019-02-05T18:08:38.224Z,7.70
2019-02-05T18:11:07.347Z,7.70
2019-02-05T18:13:36.397Z,7.60
2019-02-05T18:16:13.605Z,7.60
2019-02-05T18:18:42.700Z,7.60
2019-02-05T18:21:11.623Z,7.50
2019-02-05T18:23:40.580Z,7.50
2019-02-05T18:26:09.926Z,7.50
2019-02-05T18:28:39.126Z,7.50
2019-02-05T18:31:08.084Z,7.50
2019-02-05T18:33:36.928Z,7.50
2019-02-05T18:36:06.453Z,7.40
2019-02-05T18:38:35.596Z,7.40
2019-02-05T18:41:04.689Z,7.30
2019-02-05T18:43:34.224Z,7.40
2019-02-05T18:46:03.172Z,7.40
2019-02-05T18:48:32.122Z,7.40
2019-02-05T18:51:00.940Z,7.30
2019-02-05T18:53:29.820Z,7.30
2019-02-05T18:55:58.892Z,7.20
2019-02-05T18:58:28.416Z,7.20
2019-02-05T19:00:57.364Z,7.20
2019-02-05T19:03:26.220Z,7.00
2019-02-05T19:05:57.055Z,7.00
2019-02-05T19:08:25.936Z,7.00
2019-02-05T19:10:54.934Z,7.00
2019-02-05T19:13:23.826Z,7.00
2019-02-05T19:15:52.623Z,7.00
2019-02-05T19:18:22.253Z,6.90
2019-02-05T19:20:51.655Z,6.90
2019-02-05T19:23:20.759Z,6.90
2019-02-05T19:26:14.720Z,6.80
2019-02-05T19:28:44.250Z,6.80
2019-02-05T19:31:23.392Z,6.70
2019-02-05T19:33:52.316Z,6.70
2019-02-05T19:36:21.562Z,6.60
2019-02-05T19:38:50.467Z,6.60
2019-02-05T19:41:19.485Z,6.50
2019-02-05T19:43:49.344Z,6.40
2019-02-05T19:46:36.239Z,6.30
2019-02-05T19:49:25.828Z,6.20
2019-02-05T19:51:54.932Z,6.20
2019-02-05T19:54:24.616Z,6.00
2019-02-05T19:56:53.977Z,5.90
2019-02-05T19:59:23.473Z,5.90
2019-02-05T20:01:52.459Z,5.80
2019-02-05T20:04:21.560Z,5.70
2019-02-05T20:06:50.529Z,5.70
2019-02-05T20:09:19.512Z,5.70
2019-02-05T20:11:48.808Z,5.60
2019-02-05T20:14:17.899Z,5.50
2019-02-05T20:16:46.857Z,5.40
2019-02-05T20:19:15.787Z,5.40
2019-02-05T20:21:45.252Z,5.30
2019-02-05T20:24:14.280Z,5.30
2019-02-05T20:26:43.660Z,5.30
2019-02-05T20:29:12.568Z,5.20
2019-02-05T20:31:41.580Z,5.20
2019-02-05T20:34:10.412Z,5.10
2019-02-05T20:36:39.799Z,5.00
2019-02-05T20:39:16.712Z,4.90
2019-02-05T20:41:45.677Z,4.90
2019-02-05T20:44:14.683Z,4.90
2019-02-05T20:46:43.652Z,4.80
2019-02-05T20:49:12.652Z,4.80
2019-02-05T20:51:41.809Z,4.80
2019-02-05T20:54:10.778Z,4.70
2019-02-05T20:56:39.660Z,4.60
2019-02-05T20:59:08.629Z,4.60
2019-02-05T21:01:37.540Z,4.60
2019-02-05T21:04:06.797Z,4.50
2019-02-05T21:06:35.796Z,4.60
2019-02-05T21:09:18.750Z,4.60
2019-02-05T21:11:47.810Z,4.40
2019-02-05T21:14:16.816Z,4.40
2019-02-05T21:16:46.020Z,4.30
2019-02-05T21:19:15.012Z,4.20
2019-02-05T21:21:44.020Z,4.20
2019-02-05T21:24:13.124Z,4.10
2019-02-05T21:26:42.053Z,4.00
2019-02-05T21:29:11.284Z,4.00
2019-02-05T21:31:40.516Z,4.00
2019-02-05T21:34:15.286Z,4.00
2019-02-05T21:36:40.047Z,4.00
2019-02-05T21:39:10.941Z,4.00
2019-02-05T21:41:39.966Z,4.00
2019-02-05T21:44:08.872Z,3.90
2019-02-05T21:46:37.792Z,3.90
2019-02-05T21:49:06.866Z,3.80
2019-02-05T21:51:40.893Z,3.80
2019-02-05T21:54:06.384Z,3.80
2019-02-05T21:56:35.360Z,3.80
2019-02-05T21:59:04.337Z,3.80
2019-02-05T22:01:33.345Z,3.80
2019-02-05T22:04:02.364Z,2.70
2019-02-05T22:06:31.500Z,3.70
2019-02-05T22:09:00.909Z,3.70
2019-02-05T22:11:30.400Z,3.60
2019-02-05T22:13:59.392Z,3.60
2019-02-05T22:16:28.320Z,3.60
2019-02-05T22:18:57.247Z,3.60
2019-02-05T22:21:26.608Z,3.50
2019-02-05T22:23:55.512Z,3.50
2019-02-05T22:26:24.473Z,3.50
2019-02-05T22:28:53.955Z,3.40
2019-02-05T22:31:22.948Z,3.40
2019-02-05T22:33:51.848Z,3.40
2019-02-05T22:36:20.745Z,3.30
2019-02-05T22:38:49.663Z,3.30
2019-02-05T22:41:19.116Z,3.30
2019-02-05T22:43:48.240Z,3.30
2019-02-05T22:46:17.172Z,3.30
2019-02-05T22:48:46.096Z,3.20
2019-02-05T22:51:15.090Z,3.20
2019-02-05T22:53:43.996Z,3.20
2019-02-05T22:56:12.912Z,3.10
2019-02-05T22:58:42.440Z,3.00
2019-02-05T23:01:31.312Z,2.90
2019-02-05T23:04:27.744Z,2.80
2019-02-05T23:07:12.368Z,2.70
2019-02-05T23:09:51.457Z,2.60
2019-02-05T23:12:37.249Z,2.60
2019-02-05T23:15:19.821Z,2.60
2019-02-05T23:17:48.828Z,2.50
2019-02-05T23:20:19.980Z,2.40
2019-02-05T23:22:49.129Z,2.30
2019-02-05T23:25:18.145Z,2.30
2019-02-05T23:27:47.044Z,2.30
2019-02-05T23:30:27.139Z,2.30
2019-02-05T23:32:56.086Z,2.40
2019-02-05T23:35:25.415Z,2.30
2019-02-05T23:37:54.382Z,2.30
2019-02-05T23:40:23.388Z,2.20
2019-02-05T23:42:52.288Z,2.20
2019-02-05T23:45:21.264Z,2.20
2019-02-05T23:47:50.152Z,2.20
2019-02-05T23:50:19.184Z,2.20
2019-02-05T23:52:48.174Z,2.30
2019-02-05T23:55:17.248Z,2.30
2019-02-05T23:57:46.209Z,2.20
